createdAt,value
2018-12-19T00:00:08.220Z,-2.20
2018-12-19T00:02:35.696Z,-2.20
2018-12-19T00:05:03.368Z,-2.20
2018-12-19T00:07:30.849Z,-2.20
2018-12-19T00:09:58.332Z,-2.20
2018-12-19T00:12:25.820Z,-2.20
2018-12-19T00:14:53.305Z,-2.10
2018-12-19T00:17:20.787Z,-2.10
2018-12-19T00:19:48.340Z,-2.10
2018-12-19T00:22:15.824Z,-2.00
2018-12-19T00:24:43.310Z,-2.00
2018-12-19T00:27:10.797Z,-1.90
2018-12-19T00:29:38.280Z,-1.90
2018-12-19T00:32:05.760Z,-1.90
2018-12-19T00:34:33.241Z,-1.80
2018-12-19T00:37:00.729Z,-1.90
2018-12-19T00:39:28.217Z,-1.80
2018-12-19T00:41:55.692Z,-1.80
2018-12-19T00:44:23.176Z,-1.80
2018-12-19T00:46:50.668Z,-1.80
2018-12-19T00:49:18.160Z,-1.80
2018-12-19T00:51:45.645Z,-1.70
2018-12-19T00:54:13.129Z,-1.80
2018-12-19T00:56:40.604Z,-1.70
2018-12-19T00:59:08.092Z,-1.70
2018-12-19T01:01:35.573Z,-1.70
2018-12-19T01:04:03.061Z,-1.60
2018-12-19T01:06:30.558Z,-1.70
2018-12-19T01:08:58.045Z,-1.60
2018-12-19T01:11:25.568Z,-1.60
2018-12-19T01:13:53.056Z,-1.60
2018-12-19T01:16:20.538Z,-1.70
2018-12-19T01:18:48.058Z,-1.90
2018-12-19T01:21:15.540Z,-2.10
2018-12-19T01:23:43.024Z,-2.20
2018-12-19T01:26:10.508Z,-2.20
2018-12-19T01:28:37.988Z,-2.20
2018-12-19T01:31:05.470Z,-2.20
2018-12-19T01:33:32.964Z,-2.20
2018-12-19T01:36:00.450Z,-2.20
2018-12-19T01:38:27.941Z,-2.30
2018-12-19T01:40:55.424Z,-2.50
2018-12-19T01:43:22.910Z,-2.60
2018-12-19T01:45:50.412Z,-2.60
2018-12-19T01:48:17.907Z,-2.70
2018-12-19T01:50:45.389Z,-2.90
2018-12-19T01:53:12.868Z,-2.90
2018-12-19T01:55:40.628Z,-3.00
2018-12-19T01:58:08.109Z,-3.10
2018-12-19T02:00:35.593Z,-3.20
2018-12-19T02:03:03.072Z,-3.10
2018-12-19T02:05:30.586Z,-3.10
2018-12-19T02:07:58.065Z,-3.20
2018-12-19T02:10:25.549Z,-3.20
2018-12-19T02:12:53.057Z,-3.20
2018-12-19T02:15:20.537Z,-3.30
2018-12-19T02:17:48.020Z,-3.30
2018-12-19T02:20:15.503Z,-3.30
2018-12-19T02:22:42.992Z,-3.30
2018-12-19T02:25:10.492Z,-3.40
2018-12-19T02:27:37.972Z,-3.30
2018-12-19T02:30:06.009Z,-3.30
2018-12-19T02:32:33.490Z,-3.10
2018-12-19T02:35:00.974Z,-3.10
2018-12-19T02:37:28.456Z,-3.20
2018-12-19T02:39:55.945Z,-3.30
2018-12-19T02:42:23.429Z,-3.20
2018-12-19T02:44:50.909Z,-3.20
2018-12-19T02:47:18.399Z,-3.20
2018-12-19T02:49:45.884Z,-3.30
2018-12-19T02:52:13.380Z,-3.30
2018-12-19T02:54:40.871Z,-3.40
2018-12-19T02:57:08.351Z,-3.20
2018-12-19T02:59:35.833Z,-3.20
2018-12-19T03:02:03.476Z,-3.30
2018-12-19T03:04:30.956Z,-3.50
2018-12-19T03:06:58.476Z,-3.50
2018-12-19T03:09:25.961Z,-3.60
2018-12-19T03:11:53.440Z,-3.70
2018-12-19T03:14:20.920Z,-3.80
2018-12-19T03:16:48.409Z,-3.80
2018-12-19T03:19:15.897Z,-3.80
2018-12-19T03:21:43.389Z,-3.70
2018-12-19T03:24:10.870Z,-3.80
2018-12-19T03:26:38.349Z,-3.70
2018-12-19T03:29:05.828Z,-3.70
2018-12-19T03:31:33.316Z,-3.80
2018-12-19T03:34:00.909Z,-3.90
2018-12-19T03:36:28.402Z,-3.90
2018-12-19T03:38:55.885Z,-4.00
2018-12-19T03:41:23.642Z,-3.90
2018-12-19T03:43:51.157Z,-3.90
2018-12-19T03:46:18.734Z,-3.80
2018-12-19T03:48:51.962Z,-3.80
2018-12-19T03:51:19.453Z,-3.80
2018-12-19T03:53:46.937Z,-3.90
2018-12-19T03:56:14.421Z,-4.00
2018-12-19T03:58:41.909Z,-4.10
2018-12-19T04:01:09.388Z,-4.20
2018-12-19T04:03:36.871Z,-4.40
2018-12-19T04:06:04.518Z,-4.30
2018-12-19T04:08:32.006Z,-4.40
2018-12-19T04:10:59.492Z,-4.40
2018-12-19T04:13:26.987Z,-4.40
2018-12-19T04:15:54.465Z,-4.40
2018-12-19T04:18:21.949Z,-4.30
2018-12-19T04:20:49.435Z,-4.10
2018-12-19T04:23:16.920Z,-4.10
2018-12-19T04:25:44.411Z,-4.20
2018-12-19T04:28:11.897Z,-4.10
2018-12-19T04:30:40.265Z,-3.90
2018-12-19T04:33:07.749Z,-3.90
2018-12-19T04:35:35.397Z,-3.90
2018-12-19T04:38:02.884Z,-4.00
2018-12-19T04:40:30.392Z,-4.10
2018-12-19T04:42:57.950Z,-4.10
2018-12-19T04:45:25.741Z,-4.10
2018-12-19T04:47:53.221Z,-4.00
2018-12-19T04:50:20.712Z,-4.00
2018-12-19T04:52:48.184Z,-3.80
2018-12-19T04:55:15.668Z,-3.70
2018-12-19T04:57:43.152Z,-3.60
2018-12-19T05:00:10.632Z,-3.70
2018-12-19T05:02:38.117Z,-3.90
2018-12-19T05:05:05.744Z,-4.00
2018-12-19T05:07:33.505Z,-4.10
2018-12-19T05:10:00.995Z,-4.10
2018-12-19T05:12:28.481Z,-4.20
2018-12-19T05:14:55.973Z,-4.30
2018-12-19T05:17:23.571Z,-4.30
2018-12-19T05:19:51.438Z,-4.40
2018-12-19T05:22:18.916Z,-4.30
2018-12-19T05:24:46.404Z,-4.40
2018-12-19T05:27:13.884Z,-4.40
2018-12-19T05:29:42.179Z,-4.40
2018-12-19T05:32:09.700Z,-4.30
2018-12-19T05:34:37.176Z,-4.30
2018-12-19T05:37:04.651Z,-4.40
2018-12-19T05:39:32.136Z,-4.40
2018-12-19T05:41:59.624Z,-4.60
2018-12-19T05:44:27.121Z,-4.70
2018-12-19T05:46:54.616Z,-4.70
2018-12-19T05:49:22.108Z,-4.70
2018-12-19T05:51:49.591Z,-4.70
2018-12-19T05:54:17.084Z,-4.70
2018-12-19T05:56:44.576Z,-4.70
2018-12-19T05:59:12.140Z,-4.70
2018-12-19T06:01:39.629Z,-4.70
2018-12-19T06:04:07.112Z,-4.70
2018-12-19T06:06:34.594Z,-4.70
2018-12-19T06:09:02.085Z,-4.70
2018-12-19T06:11:29.569Z,-4.70
2018-12-19T06:13:57.052Z,-4.70
2018-12-19T06:16:24.615Z,-4.60
2018-12-19T06:18:52.096Z,-4.60
2018-12-19T06:21:20.630Z,-4.70
2018-12-19T06:23:48.112Z,-4.80
2018-12-19T06:26:15.596Z,-4.80
2018-12-19T06:28:43.193Z,-4.80
2018-12-19T06:31:10.700Z,-4.50
2018-12-19T06:33:38.488Z,-4.40
2018-12-19T06:36:06.359Z,-4.40
2018-12-19T06:38:33.838Z,-4.40
2018-12-19T06:41:01.316Z,-4.50
2018-12-19T06:43:28.826Z,-4.60
2018-12-19T06:45:56.431Z,-4.70
2018-12-19T06:48:23.908Z,-4.60
2018-12-19T06:50:51.398Z,-4.50
2018-12-19T06:53:18.877Z,-4.40
2018-12-19T06:55:46.368Z,-4.50
2018-12-19T06:58:13.852Z,-4.50
2018-12-19T07:00:41.336Z,-4.70
2018-12-19T07:03:08.829Z,-4.60
2018-12-19T07:05:36.681Z,-4.60
2018-12-19T07:08:04.165Z,-4.40
2018-12-19T07:10:31.669Z,-4.40
2018-12-19T07:12:59.155Z,-4.30
2018-12-19T07:15:26.674Z,-4.20
2018-12-19T07:17:54.171Z,-4.10
2018-12-19T07:20:21.686Z,-4.00
2018-12-19T07:22:49.172Z,-4.00
2018-12-19T07:25:16.659Z,-3.90
2018-12-19T07:27:44.152Z,-3.90
2018-12-19T07:30:11.709Z,-3.80
2018-12-19T07:32:39.200Z,-3.80
2018-12-19T07:35:06.878Z,-3.70
2018-12-19T07:37:34.373Z,-3.50
2018-12-19T07:40:01.858Z,-3.50
2018-12-19T07:42:29.340Z,-3.50
2018-12-19T07:44:56.825Z,-3.50
2018-12-19T07:47:24.314Z,-3.50
2018-12-19T07:49:51.796Z,-3.40
2018-12-19T07:52:19.292Z,-3.40
2018-12-19T07:54:46.772Z,-3.20
2018-12-19T07:57:14.256Z,-3.20
2018-12-19T07:59:41.838Z,-3.20
2018-12-19T08:02:09.353Z,-3.30
2018-12-19T08:04:37.129Z,-3.40
2018-12-19T08:07:04.617Z,-3.30
2018-12-19T08:09:32.105Z,-3.40
2018-12-19T08:11:59.592Z,-3.40
2018-12-19T08:14:27.086Z,-3.40
2018-12-19T08:16:54.572Z,-3.30
2018-12-19T08:19:22.053Z,-3.20
2018-12-19T08:21:49.582Z,-3.20
2018-12-19T08:24:17.069Z,-3.20
2018-12-19T08:26:44.552Z,-3.10
2018-12-19T08:29:12.065Z,-3.00
2018-12-19T08:31:39.552Z,-3.00
2018-12-19T08:34:07.209Z,-2.90
2018-12-19T08:36:34.697Z,-2.80
2018-12-19T08:39:02.368Z,-2.80
2018-12-19T08:41:29.872Z,-2.70
2018-12-19T08:43:57.367Z,-2.60
2018-12-19T08:46:24.869Z,-2.50
2018-12-19T08:48:52.356Z,-2.40
2018-12-19T08:51:19.840Z,-2.20
2018-12-19T08:53:47.328Z,-2.10
2018-12-19T08:56:15.168Z,-2.10
2018-12-19T08:58:42.813Z,-2.00
2018-12-19T09:01:10.297Z,-1.90
2018-12-19T09:03:37.789Z,-1.80
2018-12-19T09:06:05.272Z,-1.70
2018-12-19T09:08:32.768Z,-1.60
2018-12-19T09:11:05.671Z,-1.50
2018-12-19T09:13:29.753Z,-1.40
2018-12-19T09:15:57.246Z,-1.20
2018-12-19T09:18:24.741Z,-1.10
2018-12-19T09:20:52.232Z,-1.00
2018-12-19T09:23:19.723Z,-0.90
2018-12-19T09:25:47.216Z,-0.70
2018-12-19T09:28:14.700Z,-0.60
2018-12-19T09:30:42.182Z,-0.50
2018-12-19T09:33:09.664Z,-0.40
2018-12-19T09:35:37.156Z,-0.40
2018-12-19T09:38:04.642Z,-0.30
2018-12-19T09:40:32.126Z,-0.40
2018-12-19T09:42:59.609Z,-0.40
2018-12-19T09:45:27.104Z,-0.40
2018-12-19T09:47:54.591Z,-0.50
2018-12-19T09:50:22.072Z,-0.30
2018-12-19T09:52:49.558Z,-0.20
2018-12-19T09:55:17.040Z,-0.20
2018-12-19T09:57:44.521Z,-0.10
2018-12-19T10:00:14.056Z,-0.10
2018-12-19T10:02:41.538Z,0.00
2018-12-19T10:05:09.076Z,0.30
2018-12-19T10:07:36.568Z,0.40
2018-12-19T10:10:04.380Z,0.50
2018-12-19T10:12:31.863Z,0.60
2018-12-19T10:14:59.340Z,0.50
2018-12-19T10:17:26.896Z,0.60
2018-12-19T10:19:54.389Z,0.70
2018-12-19T10:22:36.712Z,0.80
2018-12-19T10:25:10.964Z,0.90
2018-12-19T10:27:38.438Z,1.00
2018-12-19T10:30:09.765Z,1.10
2018-12-19T10:32:38.052Z,1.10
2018-12-19T10:35:06.073Z,1.30
2018-12-19T10:37:33.772Z,1.30
2018-12-19T10:40:01.429Z,1.40
2018-12-19T10:42:28.907Z,1.50
2018-12-19T10:44:56.396Z,1.40
2018-12-19T10:47:23.943Z,1.20
2018-12-19T10:49:51.430Z,1.30
2018-12-19T10:52:18.916Z,1.30
2018-12-19T10:54:46.400Z,1.40
2018-12-19T10:57:13.870Z,1.40
2018-12-19T10:59:41.350Z,1.30
2018-12-19T11:02:08.824Z,1.30
2018-12-19T11:04:36.304Z,1.30
2018-12-19T11:07:03.788Z,1.30
2018-12-19T11:09:31.301Z,1.30
2018-12-19T11:11:58.852Z,1.30
2018-12-19T11:14:27.744Z,1.50
2018-12-19T11:16:55.589Z,1.50
2018-12-19T11:19:23.060Z,1.50
2018-12-19T11:21:50.560Z,1.50
2018-12-19T11:24:18.122Z,1.60
2018-12-19T11:26:45.768Z,1.70
2018-12-19T11:29:13.247Z,1.60
2018-12-19T11:31:40.717Z,1.70
2018-12-19T11:34:08.424Z,1.70
2018-12-19T11:36:35.905Z,1.70
2018-12-19T11:39:06.714Z,1.80
2018-12-19T11:41:38.996Z,1.80
2018-12-19T11:44:04.277Z,2.00
2018-12-19T11:46:31.748Z,2.00
2018-12-19T11:48:59.220Z,1.90
2018-12-19T11:51:26.700Z,2.00
2018-12-19T11:53:54.182Z,2.00
2018-12-19T11:56:21.670Z,1.90
2018-12-19T11:58:49.144Z,2.00
2018-12-19T12:01:16.623Z,1.90
2018-12-19T12:03:44.096Z,1.90
2018-12-19T12:06:11.576Z,1.80
2018-12-19T12:08:39.052Z,1.70
2018-12-19T12:11:06.557Z,1.60
2018-12-19T12:13:34.032Z,1.80
2018-12-19T12:16:01.513Z,1.90
2018-12-19T12:18:28.993Z,2.00
2018-12-19T12:20:56.472Z,2.00
2018-12-19T12:23:23.961Z,2.00
2018-12-19T12:25:51.443Z,2.00
2018-12-19T12:28:18.924Z,2.00
2018-12-19T12:30:46.393Z,2.00
2018-12-19T12:33:13.881Z,1.90
2018-12-19T12:35:41.637Z,2.00
2018-12-19T12:38:09.124Z,1.90
2018-12-19T12:40:36.602Z,1.80
2018-12-19T12:43:04.088Z,1.80
2018-12-19T12:45:31.576Z,1.80
2018-12-19T12:47:59.052Z,1.80
2018-12-19T12:50:26.533Z,1.70
2018-12-19T12:52:54.022Z,1.60
2018-12-19T12:55:21.504Z,1.50
2018-12-19T12:57:48.977Z,1.40
2018-12-19T13:00:16.533Z,1.50
2018-12-19T13:02:44.009Z,1.50
2018-12-19T13:05:11.573Z,1.40
2018-12-19T13:07:39.053Z,1.30
2018-12-19T13:10:08.633Z,1.40
2018-12-19T13:12:36.118Z,1.40
2018-12-19T13:15:06.073Z,1.30
2018-12-19T13:17:33.552Z,1.30
2018-12-19T13:20:01.032Z,1.30
2018-12-19T13:22:28.511Z,1.20
2018-12-19T13:24:55.986Z,1.20
2018-12-19T13:27:23.472Z,1.20
2018-12-19T13:29:50.949Z,1.10
2018-12-19T13:32:18.714Z,1.20
2018-12-19T13:34:46.302Z,1.20
2018-12-19T13:37:13.780Z,1.10
2018-12-19T13:39:41.260Z,1.00
2018-12-19T13:42:08.744Z,0.90
2018-12-19T13:44:36.224Z,0.90
2018-12-19T13:47:03.709Z,0.90
2018-12-19T13:49:31.195Z,0.80
2018-12-19T13:51:58.676Z,0.70
2018-12-19T13:54:26.157Z,0.70
2018-12-19T13:56:53.640Z,0.70
2018-12-19T13:59:21.143Z,0.60
2018-12-19T14:01:48.624Z,0.60
2018-12-19T14:04:16.185Z,0.60
2018-12-19T14:06:43.675Z,0.60
2018-12-19T14:09:11.158Z,0.50
2018-12-19T14:11:38.641Z,0.40
2018-12-19T14:14:06.138Z,0.30
2018-12-19T14:16:33.628Z,0.30
2018-12-19T14:19:01.107Z,0.30
2018-12-19T14:21:28.589Z,0.20
2018-12-19T14:23:56.932Z,0.30
2018-12-19T14:26:24.732Z,0.30
2018-12-19T14:28:52.212Z,0.30
2018-12-19T14:31:19.692Z,0.30
2018-12-19T14:33:47.168Z,0.20
2018-12-19T14:36:14.656Z,0.20
2018-12-19T14:38:42.791Z,0.10
2018-12-19T14:41:10.449Z,0.30
2018-12-19T14:43:37.935Z,0.30
2018-12-19T14:46:05.413Z,0.20
2018-12-19T14:48:33.068Z,0.10
2018-12-19T14:51:00.829Z,0.10
2018-12-19T14:53:28.311Z,0.20
2018-12-19T14:55:55.792Z,0.20
2018-12-19T14:58:23.273Z,0.10
2018-12-19T15:00:50.756Z,0.10
2018-12-19T15:03:18.234Z,0.00
2018-12-19T15:05:45.712Z,0.10
2018-12-19T15:08:13.192Z,0.10
2018-12-19T15:10:40.672Z,0.10
2018-12-19T15:13:08.241Z,0.10
2018-12-19T15:15:35.724Z,0.00
2018-12-19T15:18:03.204Z,0.00
2018-12-19T15:20:30.684Z,0.00
2018-12-19T15:22:58.165Z,0.10
2018-12-19T15:25:25.644Z,0.00
2018-12-19T15:27:53.145Z,0.00
2018-12-19T15:30:20.621Z,0.00
2018-12-19T15:32:48.185Z,-0.10
2018-12-19T15:35:15.668Z,-0.10
2018-12-19T15:37:43.157Z,-0.10
2018-12-19T15:40:10.753Z,-0.10
2018-12-19T15:42:38.237Z,-0.10
2018-12-19T15:45:05.876Z,-0.20
2018-12-19T15:47:33.368Z,-0.20
2018-12-19T15:50:00.853Z,-0.20
2018-12-19T15:52:28.344Z,-0.20
2018-12-19T15:54:55.890Z,-0.20
2018-12-19T15:57:23.454Z,-0.20
2018-12-19T15:59:50.932Z,-0.20
2018-12-19T16:02:18.439Z,-0.20
2018-12-19T16:04:45.923Z,-0.20
2018-12-19T16:07:13.408Z,-0.20
2018-12-19T16:09:40.896Z,-0.20
2018-12-19T16:12:08.385Z,-0.30
2018-12-19T16:14:35.876Z,-0.30
2018-12-19T16:17:03.356Z,-0.30
2018-12-19T16:19:30.913Z,-0.30
2018-12-19T16:21:58.403Z,-0.30
2018-12-19T16:24:25.888Z,-0.30
2018-12-19T16:26:53.449Z,-0.30
2018-12-19T16:29:21.368Z,-0.30
2018-12-19T16:31:48.861Z,-0.30
2018-12-19T16:34:16.370Z,-0.30
2018-12-19T16:36:43.853Z,-0.40
2018-12-19T16:39:11.336Z,-0.40
2018-12-19T16:41:38.823Z,-0.50
2018-12-19T16:44:06.309Z,-0.50
2018-12-19T16:46:33.809Z,-0.40
2018-12-19T16:49:03.438Z,-0.40
2018-12-19T16:51:31.255Z,-0.50
2018-12-19T16:53:58.745Z,-0.40
2018-12-19T16:56:26.234Z,-0.40
2018-12-19T16:58:54.252Z,-0.50
2018-12-19T17:01:21.818Z,-0.50
2018-12-19T17:03:49.304Z,-0.40
2018-12-19T17:06:16.868Z,-0.50
2018-12-19T17:08:44.356Z,-0.40
2018-12-19T17:11:11.836Z,-0.40
2018-12-19T17:13:39.336Z,-0.40
2018-12-19T17:16:06.821Z,-0.30
2018-12-19T17:18:34.309Z,-0.40
2018-12-19T17:21:01.800Z,-0.40
2018-12-19T17:23:29.290Z,-0.40
2018-12-19T17:25:56.776Z,-0.40
2018-12-19T17:28:24.265Z,-0.50
2018-12-19T17:30:51.834Z,-0.50
2018-12-19T17:33:19.325Z,-0.50
2018-12-19T17:35:46.809Z,-0.50
2018-12-19T17:38:14.386Z,-0.50
2018-12-19T17:40:41.885Z,-0.50
2018-12-19T17:43:09.365Z,-0.60
2018-12-19T17:45:36.855Z,-0.60
2018-12-19T17:48:04.345Z,-0.60
2018-12-19T17:50:31.856Z,-0.60
2018-12-19T17:52:59.337Z,-0.60
2018-12-19T17:55:26.830Z,-0.50
2018-12-19T17:57:54.316Z,-0.50
2018-12-19T18:00:21.804Z,-0.40
2018-12-19T18:02:49.312Z,-0.40
2018-12-19T18:05:16.854Z,-0.40
2018-12-19T18:07:44.364Z,-0.40
2018-12-19T18:10:11.860Z,-0.40
2018-12-19T18:12:39.344Z,-0.30
2018-12-19T18:15:06.845Z,-0.40
2018-12-19T18:17:34.329Z,-0.40
2018-12-19T18:20:01.842Z,-0.30
2018-12-19T18:22:29.383Z,-0.40
2018-12-19T18:24:56.889Z,-0.40
2018-12-19T18:27:24.376Z,-0.40
2018-12-19T18:29:51.866Z,-0.40
2018-12-19T18:32:19.365Z,-0.40
2018-12-19T18:34:46.846Z,-0.30
2018-12-19T18:37:14.346Z,-0.40
2018-12-19T18:39:41.833Z,-0.40
2018-12-19T18:42:09.317Z,-0.40
2018-12-19T18:44:36.879Z,-0.40
2018-12-19T18:47:04.364Z,-0.40
2018-12-19T18:49:31.872Z,-0.40
2018-12-19T18:51:59.376Z,-0.50
2018-12-19T18:54:26.857Z,-0.50
2018-12-19T18:56:54.376Z,-0.60
2018-12-19T18:59:21.903Z,-0.60
2018-12-19T19:01:49.438Z,-0.60
2018-12-19T19:04:17.105Z,-0.60
2018-12-19T19:06:44.744Z,-0.60
2018-12-19T19:09:12.834Z,-0.60
2018-12-19T19:11:40.389Z,-0.70
2018-12-19T19:14:07.877Z,-0.70
2018-12-19T19:16:35.369Z,-0.60
2018-12-19T19:19:02.900Z,-0.60
2018-12-19T19:21:30.466Z,-0.50
2018-12-19T19:23:57.983Z,-0.40
2018-12-19T19:26:25.546Z,-0.40
2018-12-19T19:28:53.108Z,-0.40
2018-12-19T19:31:20.592Z,-0.40
2018-12-19T19:33:48.080Z,-0.40
2018-12-19T19:36:15.568Z,-0.40
2018-12-19T19:38:43.061Z,-0.40
2018-12-19T19:41:10.571Z,-0.40
2018-12-19T19:43:38.077Z,-0.50
2018-12-19T19:46:06.024Z,-0.50
2018-12-19T19:48:33.513Z,-0.60
2018-12-19T19:51:01.113Z,-0.60
2018-12-19T19:53:28.607Z,-0.60
2018-12-19T19:55:56.098Z,-0.60
2018-12-19T19:58:23.592Z,-0.70
2018-12-19T20:00:51.081Z,-0.70
2018-12-19T20:03:18.577Z,-0.70
2018-12-19T20:05:46.163Z,-0.60
2018-12-19T20:08:13.658Z,-0.60
2018-12-19T20:10:41.149Z,-0.60
2018-12-19T20:13:08.708Z,-0.70
2018-12-19T20:15:36.197Z,-0.70
2018-12-19T20:18:03.860Z,-0.70
2018-12-19T20:20:31.373Z,-0.70
2018-12-19T20:22:58.856Z,-0.80
2018-12-19T20:25:26.349Z,-0.80
2018-12-19T20:27:53.841Z,-0.90
2018-12-19T20:30:21.326Z,-0.90
2018-12-19T20:32:48.822Z,-0.90
2018-12-19T20:35:16.348Z,-0.90
2018-12-19T20:37:43.832Z,-0.90
2018-12-19T20:40:11.318Z,-0.90
2018-12-19T20:42:38.871Z,-0.90
2018-12-19T20:45:06.533Z,-0.90
2018-12-19T20:47:34.024Z,-0.80
2018-12-19T20:50:01.581Z,-0.80
2018-12-19T20:52:29.108Z,-0.80
2018-12-19T20:54:56.590Z,-0.80
2018-12-19T20:57:24.173Z,-0.80
2018-12-19T20:59:51.788Z,-0.80
2018-12-19T21:02:19.349Z,-0.80
2018-12-19T21:04:46.953Z,-0.80
2018-12-19T21:07:14.440Z,-0.90
2018-12-19T21:09:41.928Z,-0.90
2018-12-19T21:12:09.412Z,-0.90
2018-12-19T21:14:36.901Z,-0.80
2018-12-19T21:17:10.100Z,-0.80
2018-12-19T21:19:37.587Z,-0.80
2018-12-19T21:22:07.917Z,-0.90
2018-12-19T21:24:35.406Z,-0.90
2018-12-19T21:27:02.889Z,-0.90
2018-12-19T21:29:30.400Z,-0.80
2018-12-19T21:31:57.880Z,-0.90
2018-12-19T21:34:25.368Z,-0.80
2018-12-19T21:36:52.885Z,-0.70
2018-12-19T21:39:20.475Z,-0.70
2018-12-19T21:41:47.966Z,-0.70
2018-12-19T21:44:15.576Z,-0.70
2018-12-19T21:46:43.269Z,-0.70
2018-12-19T21:49:10.856Z,-0.70
2018-12-19T21:51:38.369Z,-0.70
2018-12-19T21:54:06.009Z,-0.70
2018-12-19T21:56:33.644Z,-0.80
2018-12-19T21:59:01.135Z,-0.80
2018-12-19T22:01:28.625Z,-0.80
2018-12-19T22:03:56.113Z,-0.80
2018-12-19T22:06:23.654Z,-0.80
2018-12-19T22:08:51.205Z,-0.80
2018-12-19T22:11:18.779Z,-0.80
2018-12-19T22:13:46.317Z,-0.80
2018-12-19T22:16:15.889Z,-0.80
2018-12-19T22:18:46.969Z,-0.80
2018-12-19T22:21:14.983Z,-0.80
2018-12-19T22:23:42.557Z,-0.80
2018-12-19T22:26:10.088Z,-0.80
2018-12-19T22:28:37.713Z,-0.80
2018-12-19T22:31:05.269Z,-0.80
2018-12-19T22:33:32.960Z,-0.90
2018-12-19T22:36:00.465Z,-0.90
2018-12-19T22:38:28.046Z,-0.90
2018-12-19T22:40:55.633Z,-0.80
2018-12-19T22:43:23.208Z,-0.70
2018-12-19T22:45:50.785Z,-0.80
2018-12-19T22:48:18.299Z,-0.80
2018-12-19T22:50:45.900Z,-0.70
2018-12-19T22:53:13.559Z,-0.70
2018-12-19T22:55:41.153Z,-0.80
2018-12-19T22:58:08.708Z,-0.80
2018-12-19T23:00:42.011Z,-0.80
2018-12-19T23:03:09.633Z,-0.80
2018-12-19T23:05:55.884Z,-0.80
2018-12-19T23:08:23.401Z,-0.70
2018-12-19T23:10:51.294Z,-0.70
2018-12-19T23:13:18.939Z,-0.80
2018-12-19T23:15:46.453Z,-0.70
2018-12-19T23:18:30.636Z,-0.70
2018-12-19T23:20:58.296Z,-0.80
2018-12-19T23:23:25.809Z,-0.80
2018-12-19T23:25:53.301Z,-0.80
2018-12-19T23:28:20.842Z,-0.80
2018-12-19T23:30:48.388Z,-0.80
2018-12-19T23:33:15.951Z,-0.80
2018-12-19T23:35:43.480Z,-0.80
2018-12-19T23:38:11.047Z,-0.90
2018-12-19T23:40:38.564Z,-1.00
2018-12-19T23:43:06.049Z,-1.00
2018-12-19T23:45:33.534Z,-1.00
2018-12-19T23:48:01.130Z,-1.00
2018-12-19T23:50:28.724Z,-1.00
2018-12-19T23:52:56.285Z,-1.00
2018-12-19T23:55:23.890Z,-0.90
2018-12-19T23:57:51.495Z,-0.90
